createdAt,value
2018-12-14T00:01:31.498Z,32.47
2018-12-14T00:04:00.540Z,23.57
2018-12-14T00:06:29.444Z,29.33
2018-12-14T00:08:58.424Z,21.97
2018-12-14T00:11:27.404Z,22.07
2018-12-14T00:13:56.320Z,17.20
2018-12-14T00:16:25.354Z,21.90
2018-12-14T00:18:54.364Z,17.80
2018-12-14T00:21:23.291Z,17.53
2018-12-14T00:23:52.277Z,25.67
2018-12-14T00:26:21.249Z,25.27
2018-12-14T00:28:50.156Z,13.30
2018-12-14T00:31:19.140Z,19.80
2018-12-14T00:33:48.034Z,22.37
2018-12-14T00:36:17.716Z,27.00
2018-12-14T00:38:46.864Z,16.47
2018-12-14T00:41:15.817Z,14.00
2018-12-14T00:43:44.787Z,23.50
2018-12-14T00:46:13.757Z,9.87
2018-12-14T00:48:42.871Z,19.07
2018-12-14T00:51:11.781Z,21.07
2018-12-14T00:53:40.820Z,15.93
2018-12-14T00:56:09.728Z,18.70
2018-12-14T00:58:39.041Z,27.13
2018-12-14T01:01:08.736Z,19.40
2018-12-14T01:03:38.184Z,18.23
2018-12-14T01:06:07.105Z,17.40
2018-12-14T01:08:36.141Z,13.27
2018-12-14T01:11:05.064Z,18.23
2018-12-14T01:13:34.109Z,18.80
2018-12-14T01:16:03.120Z,15.80
2018-12-14T01:18:32.022Z,15.47
2018-12-14T01:21:00.912Z,19.40
2018-12-14T01:23:29.884Z,13.90
2018-12-14T01:25:58.802Z,26.77
2018-12-14T01:28:27.746Z,28.10
2018-12-14T01:30:57.345Z,19.73
2018-12-14T01:33:26.236Z,13.90
2018-12-14T01:35:55.127Z,24.13
2018-12-14T01:38:24.080Z,15.97
2018-12-14T01:40:52.966Z,25.80
2018-12-14T01:43:21.864Z,20.20
2018-12-14T01:45:50.823Z,15.97
2018-12-14T01:48:19.773Z,19.50
2018-12-14T01:50:48.672Z,23.83
2018-12-14T01:53:18.652Z,18.80
2018-12-14T01:55:50.237Z,18.73
2018-12-14T01:58:19.209Z,24.53
2018-12-14T02:00:48.201Z,28.53
2018-12-14T02:03:17.094Z,31.20
2018-12-14T02:05:46.051Z,24.10
2018-12-14T02:08:14.942Z,26.80
2018-12-14T02:10:43.847Z,26.00
2018-12-14T02:13:12.820Z,25.87
2018-12-14T02:15:41.715Z,23.17
2018-12-14T02:18:10.627Z,27.20
2018-12-14T02:20:39.664Z,30.10
2018-12-14T02:23:08.568Z,30.87
2018-12-14T02:25:37.474Z,22.83
2018-12-14T02:28:06.434Z,27.27
2018-12-14T02:30:42.084Z,25.27
2018-12-14T02:33:11.272Z,31.83
2018-12-14T02:35:40.185Z,30.83
2018-12-14T02:38:09.097Z,28.53
2018-12-14T02:40:38.140Z,28.70
2018-12-14T02:43:07.068Z,22.73
2018-12-14T02:45:35.985Z,34.60
2018-12-14T02:48:05.336Z,18.53
2018-12-14T02:50:34.249Z,26.13
2018-12-14T02:53:03.132Z,23.63
2018-12-14T02:55:32.095Z,22.83
2018-12-14T02:58:01.049Z,34.97
2018-12-14T03:00:30.010Z,24.07
2018-12-14T03:02:59.962Z,18.70
2018-12-14T03:05:28.866Z,25.97
2018-12-14T03:07:57.759Z,22.03
2018-12-14T03:10:26.724Z,20.10
2018-12-14T03:12:55.620Z,17.63
2018-12-14T03:15:24.926Z,19.70
2018-12-14T03:17:53.899Z,18.30
2018-12-14T03:20:22.881Z,19.80
2018-12-14T03:22:51.832Z,16.33
2018-12-14T03:25:20.809Z,15.03
2018-12-14T03:27:50.757Z,16.83
2018-12-14T03:30:19.649Z,23.10
2018-12-14T03:32:48.650Z,18.67
2018-12-14T03:35:18.245Z,11.90
2018-12-14T03:37:47.140Z,14.97
2018-12-14T03:40:16.101Z,13.93
2018-12-14T03:42:45.685Z,14.80
2018-12-14T03:45:14.584Z,16.20
2018-12-14T03:47:43.555Z,11.77
2018-12-14T03:50:12.534Z,18.87
2018-12-14T03:52:41.442Z,10.63
2018-12-14T03:55:10.415Z,10.13
2018-12-14T03:57:39.308Z,8.53
2018-12-14T04:00:09.905Z,10.00
2018-12-14T04:02:38.866Z,16.70
2018-12-14T04:05:07.920Z,10.97
2018-12-14T04:07:36.821Z,11.93
2018-12-14T04:10:06.157Z,10.97
2018-12-14T04:12:41.221Z,12.03
2018-12-14T04:15:06.177Z,13.00
2018-12-14T04:17:35.947Z,13.80
2018-12-14T04:20:04.844Z,10.83
2018-12-14T04:22:33.801Z,14.87
2018-12-14T04:25:02.724Z,6.73
2018-12-14T04:27:31.640Z,12.53
2018-12-14T04:30:00.616Z,17.57
2018-12-14T04:32:29.549Z,9.93
2018-12-14T04:34:58.488Z,9.07
2018-12-14T04:37:27.471Z,15.40
2018-12-14T04:39:56.404Z,9.97
2018-12-14T04:42:25.644Z,12.07
2018-12-14T04:44:54.674Z,13.63
2018-12-14T04:47:24.669Z,11.80
2018-12-14T04:49:53.601Z,13.90
2018-12-14T04:52:22.583Z,10.43
2018-12-14T04:54:51.878Z,12.13
2018-12-14T04:57:20.776Z,11.55
2018-12-14T04:59:49.757Z,11.25
2018-12-14T05:02:18.676Z,14.63
2018-12-14T05:04:47.561Z,10.90
2018-12-14T05:07:16.862Z,6.80
2018-12-14T05:09:45.771Z,10.90
2018-12-14T05:12:14.674Z,10.45
2018-12-14T05:14:44.868Z,7.65
2018-12-14T05:17:13.761Z,10.80
2018-12-14T05:19:42.665Z,10.00
2018-12-14T05:22:11.638Z,6.35
2018-12-14T05:24:40.539Z,9.05
2018-12-14T05:27:09.614Z,8.80
2018-12-14T05:29:38.592Z,4.92
2018-12-14T05:32:07.537Z,9.20
2018-12-14T05:34:36.436Z,7.05
2018-12-14T05:37:05.421Z,5.12
2018-12-14T05:39:34.380Z,10.88
2018-12-14T05:42:03.342Z,8.58
2018-12-14T05:44:33.058Z,5.37
2018-12-14T05:47:02.668Z,11.10
2018-12-14T05:49:31.572Z,10.60
2018-12-14T05:52:01.568Z,8.25
2018-12-14T05:54:30.469Z,6.25
2018-12-14T05:56:59.373Z,7.55
2018-12-14T05:59:28.406Z,8.33
2018-12-14T06:01:57.370Z,13.60
2018-12-14T06:04:26.268Z,8.38
2018-12-14T06:06:55.244Z,9.75
2018-12-14T06:09:24.492Z,9.33
2018-12-14T06:11:53.456Z,8.80
2018-12-14T06:14:22.424Z,6.70
2018-12-14T06:16:51.365Z,10.95
2018-12-14T06:19:20.264Z,8.88
2018-12-14T06:21:49.284Z,12.55
2018-12-14T06:24:18.199Z,12.40
2018-12-14T06:26:47.100Z,7.20
2018-12-14T06:29:16.063Z,10.03
2018-12-14T06:31:44.955Z,6.75
2018-12-14T06:34:13.864Z,8.25
2018-12-14T06:36:42.839Z,13.72
2018-12-14T06:39:11.815Z,7.30
2018-12-14T06:41:40.997Z,9.90
2018-12-14T06:44:09.961Z,8.90
2018-12-14T06:46:38.860Z,8.13
2018-12-14T06:49:07.828Z,8.28
2018-12-14T06:51:37.521Z,9.20
2018-12-14T06:54:06.540Z,10.03
2018-12-14T06:56:37.760Z,8.68
2018-12-14T06:59:06.669Z,12.15
2018-12-14T07:01:35.596Z,8.35
2018-12-14T07:04:04.585Z,10.40
2018-12-14T07:06:33.488Z,14.60
2018-12-14T07:09:02.514Z,13.13
2018-12-14T07:11:33.812Z,9.85
2018-12-14T07:14:03.657Z,10.18
2018-12-14T07:16:32.657Z,13.15
2018-12-14T07:19:01.629Z,12.28
2018-12-14T07:21:30.541Z,12.98
2018-12-14T07:23:59.457Z,7.12
2018-12-14T07:26:28.700Z,13.58
2018-12-14T07:28:58.456Z,9.20
2018-12-14T07:31:27.347Z,16.42
2018-12-14T07:33:56.320Z,12.30
2018-12-14T07:36:25.214Z,14.18
2018-12-14T07:38:54.118Z,12.05
2018-12-14T07:41:23.079Z,13.68
2018-12-14T07:43:51.980Z,14.43
2018-12-14T07:46:20.897Z,13.68
2018-12-14T07:48:49.907Z,14.78
2018-12-14T07:51:18.808Z,16.05
2018-12-14T07:53:47.713Z,18.65
2018-12-14T07:56:16.777Z,17.80
2018-12-14T07:58:45.856Z,22.22
2018-12-14T08:01:15.163Z,18.75
2018-12-14T08:03:44.145Z,20.80
2018-12-14T08:06:13.037Z,18.05
2018-12-14T08:08:41.991Z,21.73
2018-12-14T08:11:10.985Z,22.20
2018-12-14T08:13:40.936Z,20.50
2018-12-14T08:16:09.844Z,21.27
2018-12-14T08:18:39.728Z,23.87
2018-12-14T08:21:08.632Z,19.73
2018-12-14T08:23:37.524Z,18.73
2018-12-14T08:26:06.480Z,17.95
2018-12-14T08:28:35.382Z,20.97
2018-12-14T08:31:04.300Z,19.12
2018-12-14T08:33:33.272Z,20.10
2018-12-14T08:36:02.194Z,18.15
2018-12-14T08:38:31.116Z,15.20
2018-12-14T08:41:00.168Z,18.20
2018-12-14T08:43:29.129Z,23.98
2018-12-14T08:45:58.149Z,19.60
2018-12-14T08:48:27.368Z,17.40
2018-12-14T08:50:56.282Z,18.15
2018-12-14T08:53:25.475Z,22.40
2018-12-14T08:55:54.666Z,25.30
2018-12-14T08:58:23.564Z,22.27
2018-12-14T09:00:52.487Z,24.40
2018-12-14T09:03:21.480Z,16.85
2018-12-14T09:05:50.389Z,19.07
2018-12-14T09:08:19.280Z,18.07
2018-12-14T09:10:48.295Z,18.95
2018-12-14T09:13:17.223Z,20.68
2018-12-14T09:15:46.848Z,19.07
2018-12-14T09:18:15.878Z,14.20
2018-12-14T09:20:44.820Z,17.87
2018-12-14T09:23:13.974Z,8.98
2018-12-14T09:25:43.510Z,15.13
2018-12-14T09:28:12.642Z,15.75
2018-12-14T09:30:42.841Z,14.10
2018-12-14T09:33:12.573Z,8.63
2018-12-14T09:35:41.489Z,13.70
2018-12-14T09:38:10.462Z,16.32
2018-12-14T09:40:39.438Z,19.30
2018-12-14T09:43:08.340Z,14.65
2018-12-14T09:45:37.244Z,14.28
2018-12-14T09:48:06.217Z,10.55
2018-12-14T09:50:35.112Z,16.73
2018-12-14T09:53:04.022Z,14.50
2018-12-14T09:55:32.988Z,11.83
2018-12-14T09:58:01.897Z,13.32
2018-12-14T10:00:30.948Z,12.68
2018-12-14T10:02:59.928Z,10.95
2018-12-14T10:05:28.891Z,13.90
2018-12-14T10:07:57.785Z,13.28
2018-12-14T10:10:26.757Z,14.58
2018-12-14T10:12:55.737Z,15.80
2018-12-14T10:15:24.635Z,20.60
2018-12-14T10:17:53.821Z,11.22
2018-12-14T10:20:22.768Z,12.03
2018-12-14T10:22:51.662Z,13.55
2018-12-14T10:25:20.978Z,14.98
2018-12-14T10:27:49.896Z,16.02
2018-12-14T10:30:18.872Z,15.83
2018-12-14T10:32:47.845Z,14.35
2018-12-14T10:35:17.899Z,10.68
2018-12-14T10:37:59.970Z,13.70
2018-12-14T10:40:28.922Z,15.13
2018-12-14T10:42:57.834Z,12.88
2018-12-14T10:45:27.993Z,17.80
2018-12-14T10:47:56.883Z,19.35
2018-12-14T10:50:26.069Z,19.35
2018-12-14T10:52:55.106Z,17.57
2018-12-14T10:55:24.028Z,17.17
2018-12-14T10:57:52.984Z,16.48
2018-12-14T11:00:28.857Z,20.48
2018-12-14T11:02:57.809Z,16.65
2018-12-14T11:05:26.747Z,14.63
2018-12-14T11:07:56.469Z,15.48
2018-12-14T11:10:25.392Z,13.65
2018-12-14T11:12:55.040Z,15.03
2018-12-14T11:15:24.059Z,14.90
2018-12-14T11:17:53.036Z,18.62
2018-12-14T11:20:21.941Z,22.73
2018-12-14T11:22:50.948Z,17.87
2018-12-14T11:25:19.924Z,15.08
2018-12-14T11:27:48.861Z,18.45
2018-12-14T11:30:25.188Z,13.60
2018-12-14T11:32:54.396Z,14.05
2018-12-14T11:35:23.311Z,16.48
2018-12-14T11:37:52.285Z,12.60
2018-12-14T11:40:21.229Z,13.65
2018-12-14T11:42:50.348Z,16.17
2018-12-14T11:45:19.305Z,16.45
2018-12-14T11:47:48.248Z,11.40
2018-12-14T11:50:17.137Z,12.43
2018-12-14T11:52:46.802Z,11.80
2018-12-14T11:55:15.734Z,10.58
2018-12-14T11:57:46.673Z,12.25
2018-12-14T12:00:15.625Z,11.70
2018-12-14T12:02:44.516Z,16.15
2018-12-14T12:05:13.499Z,10.80
2018-12-14T12:07:43.240Z,16.65
2018-12-14T12:10:12.175Z,8.23
2018-12-14T12:12:41.489Z,9.30
2018-12-14T12:15:10.441Z,13.15
2018-12-14T12:17:40.190Z,8.68
2018-12-14T12:20:11.736Z,10.72
2018-12-14T12:22:40.629Z,7.87
2018-12-14T12:25:09.544Z,12.85
2018-12-14T12:27:38.533Z,16.82
2018-12-14T12:30:08.041Z,16.27
2018-12-14T12:32:37.101Z,9.00
2018-12-14T12:35:06.296Z,19.07
2018-12-14T12:37:35.184Z,12.85
2018-12-14T12:40:04.286Z,11.08
2018-12-14T12:42:34.315Z,13.55
2018-12-14T12:45:03.252Z,16.70
2018-12-14T12:47:32.210Z,14.87
2018-12-14T12:50:01.168Z,11.70
2018-12-14T12:52:30.077Z,10.95
2018-12-14T12:54:59.041Z,10.48
2018-12-14T12:57:28.085Z,12.15
2018-12-14T12:59:56.980Z,10.15
2018-12-14T13:02:25.888Z,9.30
2018-12-14T13:04:55.036Z,7.65
2018-12-14T13:07:24.888Z,11.10
2018-12-14T13:09:53.807Z,9.58
2018-12-14T13:12:22.805Z,6.47
2018-12-14T13:14:52.324Z,14.45
2018-12-14T13:17:21.255Z,10.90
2018-12-14T13:19:50.225Z,10.08
2018-12-14T13:22:19.220Z,20.77
2018-12-14T13:24:48.113Z,7.60
2018-12-14T13:27:20.305Z,17.70
2018-12-14T13:29:48.072Z,7.15
2018-12-14T13:32:18.217Z,20.45
2018-12-14T13:34:47.160Z,11.68
2018-12-14T13:37:16.046Z,9.03
2018-12-14T13:39:45.012Z,9.53
2018-12-14T13:42:13.955Z,14.63
2018-12-14T13:44:46.717Z,9.23
2018-12-14T13:47:15.068Z,7.30
2018-12-14T13:49:44.076Z,12.40
2018-12-14T13:52:12.987Z,9.38
2018-12-14T13:54:42.059Z,7.50
2018-12-14T13:57:10.980Z,10.58
2018-12-14T13:59:39.877Z,16.20
2018-12-14T14:02:08.875Z,18.40
2018-12-14T14:04:37.773Z,8.88
2018-12-14T14:07:06.672Z,14.03
2018-12-14T14:09:35.688Z,20.88
2018-12-14T14:12:04.600Z,20.75
2018-12-14T14:14:33.568Z,16.65
2018-12-14T14:17:02.731Z,10.35
2018-12-14T14:19:31.821Z,13.28
2018-12-14T14:22:00.736Z,12.98
2018-12-14T14:24:30.017Z,9.55
2018-12-14T14:26:58.922Z,11.85
2018-12-14T14:29:27.826Z,6.62
2018-12-14T14:31:56.815Z,15.43
2018-12-14T14:34:25.725Z,13.50
2018-12-14T14:36:54.661Z,16.60
2018-12-14T14:39:23.714Z,15.43
2018-12-14T14:41:52.880Z,17.40
2018-12-14T14:44:21.788Z,20.23
2018-12-14T14:46:51.756Z,17.12
2018-12-14T14:49:20.690Z,14.80
2018-12-14T14:51:49.796Z,20.37
2018-12-14T14:54:18.793Z,22.90
2018-12-14T14:56:47.707Z,19.80
2018-12-14T14:59:16.650Z,14.33
2018-12-14T15:01:45.642Z,23.95
2018-12-14T15:04:15.840Z,19.52
2018-12-14T15:06:44.926Z,20.23
2018-12-14T15:09:14.324Z,16.62
2018-12-14T15:11:43.229Z,19.95
2018-12-14T15:14:12.171Z,24.05
2018-12-14T15:16:41.140Z,28.47
2018-12-14T15:19:10.041Z,25.77
2018-12-14T15:21:38.981Z,19.50
2018-12-14T15:24:07.953Z,30.77
2018-12-14T15:26:36.933Z,27.13
2018-12-14T15:29:05.844Z,20.72
2018-12-14T15:31:34.838Z,31.70
2018-12-14T15:34:03.749Z,23.87
2018-12-14T15:36:32.644Z,25.27
2018-12-14T15:39:01.638Z,34.35
2018-12-14T15:41:30.537Z,21.87
2018-12-14T15:45:23.773Z,31.20
2018-12-14T15:47:52.728Z,27.42
2018-12-14T15:50:21.685Z,29.07
2018-12-14T15:52:51.111Z,28.95
2018-12-14T15:55:20.149Z,29.50
2018-12-14T15:57:49.069Z,26.48
2018-12-14T16:00:18.087Z,21.37
2018-12-14T16:02:47.012Z,28.02
2018-12-14T16:05:15.908Z,24.75
2018-12-14T16:07:44.887Z,21.62
2018-12-14T16:10:13.796Z,30.95
2018-12-14T16:12:43.553Z,35.73
2018-12-14T16:15:12.712Z,22.93
2018-12-14T16:17:41.840Z,22.25
2018-12-14T16:20:11.080Z,24.67
2018-12-14T16:22:40.093Z,29.82
2018-12-14T16:32:13.996Z,26.60
2018-12-14T16:34:43.008Z,26.10
2018-12-14T16:37:12.036Z,20.57
2018-12-14T16:39:41.108Z,24.30
2018-12-14T16:42:10.056Z,18.27
2018-12-14T16:44:38.980Z,31.10
2018-12-14T16:47:08.101Z,26.05
2018-12-14T16:49:37.174Z,26.02
2018-12-14T16:52:06.093Z,23.52
2018-12-14T16:54:35.076Z,20.60
2018-12-14T16:57:04.054Z,35.68
2018-12-14T16:59:32.977Z,44.58
2018-12-14T17:02:01.960Z,34.03
2018-12-14T17:04:30.943Z,30.25
2018-12-14T17:06:59.836Z,27.50
2018-12-14T17:09:29.150Z,23.57
2018-12-14T17:11:58.142Z,27.90
2018-12-14T17:14:27.085Z,29.35
2018-12-14T17:16:56.096Z,24.27
2018-12-14T17:19:25.032Z,24.00
2018-12-14T17:21:54.428Z,31.10
2018-12-14T17:24:23.436Z,27.50
2018-12-14T17:26:52.345Z,27.17
2018-12-14T17:29:21.820Z,23.47
2018-12-14T17:31:50.816Z,29.37
2018-12-14T17:34:19.793Z,33.60
2018-12-14T17:36:48.733Z,24.37
2018-12-14T17:39:17.756Z,27.40
2018-12-14T17:41:46.848Z,29.70
2018-12-14T17:44:15.870Z,38.73
2018-12-14T17:46:46.172Z,37.85
2018-12-14T17:49:15.200Z,30.20
2018-12-14T17:51:44.357Z,33.25
2018-12-14T17:54:13.289Z,27.25
2018-12-14T17:56:42.259Z,30.55
2018-12-14T17:59:16.072Z,27.17
2018-12-14T18:01:45.065Z,26.50
2018-12-14T18:04:13.973Z,30.85
2018-12-14T18:06:42.982Z,35.83
2018-12-14T18:09:11.896Z,40.52
2018-12-14T18:11:40.890Z,29.65
2018-12-14T18:14:09.881Z,34.18
2018-12-14T18:16:38.873Z,26.57
2018-12-14T18:19:07.852Z,32.40
2018-12-14T18:21:36.831Z,32.25
2018-12-14T18:24:05.765Z,24.67
2018-12-14T18:26:34.760Z,29.95
2018-12-14T18:29:03.757Z,24.80
2018-12-14T18:31:32.722Z,28.50
2018-12-14T18:34:01.648Z,32.05
2018-12-14T18:36:31.564Z,20.50
2018-12-14T18:39:00.490Z,28.98
2018-12-14T18:41:29.422Z,22.85
2018-12-14T18:43:58.622Z,29.42
2018-12-14T18:46:27.557Z,30.02
2018-12-14T18:48:56.495Z,26.20
2018-12-14T18:51:25.528Z,40.60
2018-12-14T18:53:56.680Z,29.50
2018-12-14T18:56:25.678Z,30.23
2018-12-14T18:58:54.641Z,26.45
2018-12-14T19:01:23.603Z,30.15
2018-12-14T19:03:54.140Z,33.58
2018-12-14T19:06:23.041Z,35.78
2018-12-14T19:08:51.968Z,29.30
2018-12-14T19:11:20.961Z,28.20
2018-12-14T19:13:50.052Z,21.82
2018-12-14T19:16:19.018Z,26.02
2018-12-14T19:18:48.004Z,25.60
2018-12-14T19:21:16.932Z,30.62
2018-12-14T19:23:45.849Z,15.35
2018-12-14T19:26:14.952Z,24.02
2018-12-14T19:28:43.907Z,22.62
2018-12-14T19:31:12.846Z,24.50
2018-12-14T19:33:41.849Z,24.27
2018-12-14T19:36:10.797Z,22.45
2018-12-14T19:38:39.813Z,27.40
2018-12-14T19:41:08.801Z,18.10
2018-12-14T19:43:37.787Z,26.37
2018-12-14T19:46:06.869Z,25.17
2018-12-14T19:48:35.941Z,23.50
2018-12-14T19:51:04.898Z,20.02
2018-12-14T19:53:34.156Z,20.90
2018-12-14T19:56:03.162Z,21.00
2018-12-14T19:58:32.095Z,17.30
2018-12-14T20:01:01.047Z,16.82
2018-12-14T20:03:30.112Z,26.50
2018-12-14T20:05:59.952Z,17.82
2018-12-14T20:08:28.860Z,18.98
2018-12-14T20:10:57.857Z,16.12
2018-12-14T20:13:26.830Z,16.85
2018-12-14T20:15:57.695Z,20.40
2018-12-14T20:18:26.769Z,21.52
2018-12-14T20:20:57.104Z,18.15
2018-12-14T20:23:26.306Z,18.30
2018-12-14T20:25:55.562Z,22.50
2018-12-14T20:28:24.538Z,22.87
2018-12-14T20:30:53.522Z,20.97
2018-12-14T20:33:22.420Z,24.50
2018-12-14T20:35:51.325Z,19.05
2018-12-14T20:38:21.472Z,26.02
2018-12-14T20:40:50.437Z,24.00
2018-12-14T20:43:19.345Z,18.35
2018-12-14T20:45:48.327Z,14.90
2018-12-14T20:48:17.244Z,19.25
2018-12-14T20:50:46.160Z,14.13
2018-12-14T20:53:15.176Z,16.80
2018-12-14T20:55:44.120Z,27.85
2018-12-14T20:58:13.026Z,19.62
2018-12-14T21:00:41.997Z,20.15
2018-12-14T21:03:10.892Z,21.82
2018-12-14T21:05:39.788Z,20.47
2018-12-14T21:08:09.012Z,22.20
2018-12-14T21:10:37.913Z,31.73
2018-12-14T21:13:06.846Z,21.60
2018-12-14T21:15:35.873Z,26.90
2018-12-14T21:18:17.191Z,21.77
2018-12-14T21:20:46.575Z,16.42
2018-12-14T21:23:16.236Z,21.00
2018-12-14T21:25:45.161Z,20.80
2018-12-14T21:28:14.159Z,24.97
2018-12-14T21:30:43.373Z,21.80
2018-12-14T21:33:12.273Z,25.00
2018-12-14T21:35:41.314Z,25.75
2018-12-14T21:38:10.237Z,20.52
2018-12-14T21:40:39.162Z,25.68
2018-12-14T21:43:08.196Z,25.40
2018-12-14T21:45:37.265Z,17.32
2018-12-14T21:48:06.180Z,20.57
2018-12-14T21:50:35.152Z,27.65
2018-12-14T21:53:04.071Z,14.67
2018-12-14T21:55:32.988Z,16.10
2018-12-14T21:58:02.244Z,18.50
2018-12-14T22:00:32.107Z,24.20
2018-12-14T22:03:01.020Z,23.53
2018-12-14T22:05:29.996Z,17.35
2018-12-14T22:07:58.913Z,15.80
2018-12-14T22:10:27.832Z,18.57
2018-12-14T22:12:56.784Z,19.60
2018-12-14T22:15:26.137Z,22.43
2018-12-14T22:17:55.145Z,27.67
2018-12-14T22:20:24.113Z,20.55
2018-12-14T22:22:53.029Z,22.33
2018-12-14T22:25:21.973Z,21.57
2018-12-14T22:27:52.154Z,29.23
2018-12-14T22:30:21.269Z,22.70
2018-12-14T22:32:50.225Z,24.82
2018-12-14T22:35:19.209Z,18.97
2018-12-14T22:37:48.105Z,26.57
2018-12-14T22:40:17.016Z,24.57
2018-12-14T22:42:45.976Z,21.97
2018-12-14T22:45:14.937Z,22.73
2018-12-14T22:47:43.833Z,17.00
2018-12-14T22:50:12.800Z,18.83
2018-12-14T22:52:41.717Z,24.23
2018-12-14T22:55:10.621Z,22.00
2018-12-14T22:57:39.586Z,17.13
2018-12-14T23:00:10.448Z,20.20
2018-12-14T23:02:39.473Z,16.63
2018-12-14T23:05:08.387Z,20.57
2018-12-14T23:07:37.336Z,18.97
2018-12-14T23:10:06.484Z,21.80
2018-12-14T23:12:35.420Z,14.40
2018-12-14T23:15:04.332Z,11.80
2018-12-14T23:17:34.004Z,16.00
2018-12-14T23:20:02.901Z,19.07
2018-12-14T23:22:31.799Z,18.00
2018-12-14T23:25:00.762Z,21.10
2018-12-14T23:27:29.701Z,16.60
2018-12-14T23:29:58.593Z,15.63
2018-12-14T23:32:27.603Z,14.80
2018-12-14T23:34:56.518Z,12.37
2018-12-14T23:37:25.470Z,14.73
2018-12-14T23:39:54.443Z,14.63
2018-12-14T23:42:23.330Z,14.13
2018-12-14T23:44:52.221Z,17.37
2018-12-14T23:47:21.287Z,12.15
2018-12-14T23:49:50.184Z,19.87
2018-12-14T23:52:19.161Z,14.37
2018-12-14T23:54:48.128Z,13.72
2018-12-14T23:57:17.036Z,16.13
2018-12-14T23:59:45.941Z,11.70
